Data for 03/17/2013

Time Sea-Level Adjusted Pressure Absolute Pressure Temperature Relative Humidity Dew Point   
(mb) (inHg) (mb) (inHg) (C) (F) (%) (C) (F)
00:05 1005 29.68 834 24.63 6.4 43.4 43 -5.2 22.6
00:10 1005 29.68 834 24.63 6.1 42.9 43 -5.5 22.1
00:15 1004 29.65 834 24.63 5.9 42.7 46 -4.8 23.4
00:20 1004 29.65 834 24.63 5.7 42.3 49 -4.1 24.7
00:25 1004 29.65 834 24.63 5.5 41.8 51 -3.9 25.1
00:30 1004 29.65 833 24.6 5.4 41.7 51 -4 24.9
00:35 1004 29.65 833 24.6 5.4 41.8 52 -3.7 25.3
00:40 1004 29.65 833 24.6 5.3 41.5 52 -3.8 25.2
00:45 1004 29.65 833 24.6 5.2 41.3 53 -3.7 25.4
00:50 1004 29.65 833 24.6 5 41 54 -3.5 25.7
00:55 1004 29.65 833 24.6 4.9 40.7 55 -3.5 25.8
01:00 1004 29.65 833 24.6 4.8 40.7 54 -3.6 25.5
01:05 1004 29.65 833 24.6 4.8 40.7 55 -3.5 25.6
01:10 1004 29.65 833 24.6 4.8 40.7 55 -3.5 25.6
01:15 1004 29.65 833 24.6 4.8 40.6 55 -3.5 25.8
01:20 1004 29.65 833 24.6 4.8 40.6 55 -3.5 25.7
01:25 1004 29.65 833 24.6 4.8 40.6 57 -3.1 26.4
01:30 1004 29.65 833 24.6 4.5 40.2 62 -2.1 28.3
01:35 1004 29.65 833 24.6 4.1 39.3 67 -1.6 29.2
01:40 1004 29.65 833 24.6 3.7 38.7 69 -1.4 29.5
01:45 1004 29.65 833 24.6 3.4 38.2 72 -1.2 29.9
01:50 1004 29.65 833 24.6 3.2 37.8 74 -1 30.1
01:55 1004 29.65 833 24.6 3 37.5 74 -1.1 30
02:00 1004 29.65 833 24.6 3 37.3 75 -1.1 30
02:05 1004 29.65 833 24.6 3 37.4 74 -1.2 29.9
02:10 1004 29.65 833 24.6 3 37.4 74 -1.2 29.8
02:15 1003 29.62 833 24.6 3.1 37.5 72 -1.5 29.3
02:20 1003 29.62 833 24.6 3.2 37.7 70 -1.7 29
02:25 1003 29.62 833 24.6 3.3 37.9 70 -1.7 29
02:30 1003 29.62 833 24.6 3.3 37.9 70 -1.7 28.9
02:35 1003 29.62 833 24.6 3.4 38.1 68 -1.9 28.6
02:40 1003 29.62 832 24.57 3.5 38.3 68 -1.8 28.8
02:45 1003 29.62 832 24.57 3.5 38.3 68 -1.9 28.7
02:50 1003 29.62 832 24.57 3.5 38.3 68 -1.8 28.8
02:55 1003 29.62 832 24.57 3.4 38.2 69 -1.7 29
03:00 1003 29.62 832 24.57 3.3 37.9 72 -1.3 29.6
03:05 1003 29.62 832 24.57 2.8 37.1 74 -1.4 29.5
03:10 1003 29.62 832 24.57 2.4 36.4 78 -1 30.2
03:15 1003 29.62 832 24.57 2 35.6 81 -1 30.2
03:20 1003 29.62 832 24.57 1.7 35.1 83 -0.9 30.5
03:25 1003 29.62 832 24.57 1.6 34.8 84 -0.8 30.6
03:30 1003 29.62 832 24.57 1.4 34.5 86 -0.7 30.7
03:35 1003 29.62 832 24.57 1.3 34.3 87 -0.7 30.7
03:40 1003 29.62 832 24.57 1.2 34.1 87 -0.7 30.8
03:45 1002 29.59 832 24.57 1.1 33.9 88 -0.7 30.8
03:50 1003 29.62 832 24.57 1 33.8 89 -0.6 30.9
03:55 1003 29.62 832 24.57 1 33.7 90 -0.5 31.1
04:00 1003 29.62 833 24.6 0.7 33.3 91 -0.5 31.1
04:05 1004 29.65 833 24.6 -0.1 31.9 94 -0.9 30.4
04:10 1004 29.65 833 24.6 -0.5 31.1 95 -1.2 29.9
04:15 1004 29.65 833 24.6 -0.6 30.9 96 -1.2 29.9
04:20 1004 29.65 833 24.6 -0.8 30.6 96 -1.3 29.7
04:25 1004 29.65 834 24.63 -0.9 30.5 97 -1.3 29.6
04:30 1004 29.65 834 24.63 -1 30.2 97 -1.5 29.4
04:35 1004 29.65 834 24.63 -1.1 30 97 -1.6 29.2
04:40 1004 29.65 834 24.63 -1.2 29.9 97 -1.6 29.1
04:45 1004 29.65 834 24.63 -1.1 30 97 -1.5 29.3
04:50 1004 29.65 834 24.63 -1.2 29.9 97 -1.6 29.2
04:55 1004 29.65 834 24.63 -1.2 29.8 97 -1.6 29.1
05:00 1004 29.65 833 24.6 -1.4 29.5 97 -1.8 28.8
05:05 1004 29.65 833 24.6 -1.4 29.5 97 -1.8 28.7
05:10 1004 29.65 833 24.6 -1.3 29.7 97 -1.7 28.9
05:15 1004 29.65 833 24.6 -1.3 29.6 97 -1.8 28.8
05:20 1004 29.65 833 24.6 -1.3 29.6 97 -1.8 28.8
05:25 1004 29.65 833 24.6 -1.4 29.5 97 -1.9 28.7
05:30 1004 29.65 833 24.6 -1.5 29.3 97 -1.9 28.5
05:35 1004 29.65 833 24.6 -1.5 29.3 97 -2 28.5
05:40 1004 29.65 833 24.6 -1.5 29.3 97 -2 28.4
05:45 1004 29.65 833 24.6 -1.5 29.3 97 -2 28.4
05:50 1004 29.65 833 24.6 -1.5 29.3 97 -2 28.4
05:55 1004 29.65 833 24.6 -1.5 29.3 96 -2 28.4
06:00 1004 29.65 833 24.6 -1.6 29.2 96 -2 28.3
06:05 1003 29.62 833 24.6 -1.5 29.3 97 -2 28.4
06:10 1003 29.62 833 24.6 -1.4 29.5 97 -1.9 28.6
06:15 1003 29.62 833 24.6 -1.5 29.4 96 -2 28.5
06:20 1003 29.62 833 24.6 -1.3 29.7 96 -1.8 28.8
06:25 1003 29.62 832 24.57 -1.1 30 96 -1.7 28.9
06:30 1003 29.62 832 24.57 -1.1 30 96 -1.7 28.9
06:35 1003 29.62 832 24.57 -1.1 30 95 -1.8 28.8
06:40 1003 29.62 833 24.6 -1.1 30 95 -1.8 28.8
06:45 1004 29.65 833 24.6 -1 30.2 94 -1.8 28.8
06:50 1004 29.65 833 24.6 -1 30.2 94 -1.8 28.7
06:55 1004 29.65 833 24.6 -1.4 29.5 94 -2.2 28.1
07:00 1004 29.65 833 24.6 -1.8 28.8 94 -2.6 27.3
07:05 1005 29.68 834 24.63 -2.1 28.2 92 -3.2 26.2
07:10 1005 29.68 834 24.63 -2.9 26.8 93 -3.9 25
07:15 1005 29.68 834 24.63 -3.1 26.4 93 -4.1 24.6
07:20 1005 29.68 834 24.63 -3.2 26.3 92 -4.3 24.3
07:25 1005 29.68 835 24.66 -3.2 26.3 91 -4.5 24
07:30 1005 29.68 835 24.66 -3.1 26.4 91 -4.4 24
07:35 1005 29.68 835 24.66 -3 26.5 90 -4.4 24
07:40 1006 29.71 835 24.66 -2.9 26.7 82 -5.6 21.9
07:45 1006 29.71 835 24.66 -2.8 27 77 -6.3 20.7
07:50 1006 29.71 835 24.66 -2.7 27.2 77 -6.2 20.8
07:55 1006 29.71 836 24.69 -2.6 27.3 73 -6.9 19.6
08:00 1007 29.74 836 24.69 -2.6 27.3 76 -6.3 20.7
08:05 1007 29.74 836 24.69 -2.6 27.4 81 -5.4 22.4
08:10 1007 29.74 836 24.69 -2.5 27.5 79 -5.6 21.9
08:15 1007 29.74 836 24.69 -2.5 27.5 75 -6.3 20.6
08:20 1007 29.74 837 24.72 -2.4 27.7 74 -6.3 20.6
08:25 1007 29.74 837 24.72 -2.3 27.8 65 -8.1 17.5
08:30 1007 29.74 836 24.69 -2.5 27.4 60 -9.3 15.3
08:35 1007 29.74 837 24.72 -2.6 27.4 59 -9.6 14.8
08:40 1007 29.74 837 24.72 -2.4 27.7 61 -8.9 16
08:45 1007 29.74 837 24.72 -2.3 27.8 62 -8.7 16.3
08:50 1008 29.77 837 24.72 -2.2 28 57 -9.6 14.8
08:55 1008 29.77 837 24.72 -2.3 28 54 -10.3 13.5
09:00 1008 29.77 837 24.72 -2.2 28 55 -10.1 13.8
09:05 1008 29.77 837 24.72 -2.1 28.2 51 -10.9 12.3
09:10 1008 29.77 837 24.72 -2.1 28.3 52 -10.6 12.9
09:15 1008 29.77 837 24.72 -2 28.5 54 -10 14
09:20 1008 29.77 837 24.72 -2.2 28.1 52 -10.6 12.9
09:25 1008 29.77 837 24.72 -2 28.4 51 -10.8 12.6
09:30 1008 29.77 837 24.72 -1.9 28.5 51 -10.7 12.7
09:35 1008 29.77 837 24.72 -1.8 28.8 52 -10.5 13.1
09:40 1008 29.77 837 24.72 -1.7 28.9 49 -11 12.1
09:45 1008 29.77 837 24.72 -1.5 29.3 47 -11.3 11.6
09:50 1008 29.77 837 24.72 -1.3 29.6 43 -12.3 9.9
09:55 1008 29.77 837 24.72 -1.3 29.7 46 -11.5 11.3
10:00 1008 29.77 837 24.72 -1.2 29.9 42 -12.5 9.5
10:05 1008 29.77 837 24.72 -1 30.2 45 -11.6 11.1
10:10 1008 29.77 837 24.72 -1 30.2 43 -12.1 10.2
10:15 1008 29.77 837 24.72 -1.3 29.7 43 -12.4 9.7
10:20 1008 29.77 837 24.72 -1.2 29.9 44 -12 10.5
10:25 1008 29.77 837 24.72 -0.9 30.3 43 -11.9 10.6
10:30 1008 29.77 837 24.72 -0.8 30.6 43 -11.7 10.9
10:35 1008 29.77 837 24.72 -0.6 30.9 42 -12.1 10.2
10:40 1008 29.77 837 24.72 -0.4 31.3 41 -12.1 10.2
10:45 1008 29.77 837 24.72 -0.4 31.2 40 -12.4 9.7
10:50 1008 29.77 837 24.72 -0.6 30.9 40 -12.6 9.2
10:55 1008 29.77 837 24.72 -0.4 31.2 40 -12.5 9.5
11:00 1008 29.77 837 24.72 -0.4 31.3 38 -12.9 8.7
11:05 1008 29.77 837 24.72 -0.1 31.8 38 -12.7 9.2
11:10 1008 29.77 837 24.72 0 32 38 -12.6 9.3
11:15 1008 29.77 838 24.75 -0.1 31.8 40 -12.3 9.9
11:20 1008 29.77 837 24.72 -0.1 31.7 38 -12.8 8.9
11:25 1008 29.77 837 24.72 -0.3 31.4 38 -13 8.7
11:30 1008 29.77 838 24.75 -0.4 31.3 42 -11.9 10.6
11:35 1008 29.77 838 24.75 -0.2 31.6 41 -11.9 10.6
11:40 1008 29.77 837 24.72 -0 31.9 42 -11.5 11.3
11:45 1008 29.77 837 24.72 0.2 32.3 37 -12.8 8.9
11:50 1008 29.77 837 24.72 0.6 33.1 34 -13.4 7.8
11:55 1008 29.77 837 24.72 0.7 33.2 33 -13.9 7
12:00 1008 29.77 837 24.72 0.5 33 34 -13.7 7.4
12:05 1008 29.77 838 24.75 0.9 33.7 34 -13.4 7.9
12:10 1008 29.77 838 24.75 0.4 32.8 47 -9.6 14.7
12:15 1009 29.8 838 24.75 -1.3 29.6 58 -8.6 16.5
12:20 1009 29.8 838 24.75 -2.3 27.9 56 -10 14
12:25 1009 29.8 838 24.75 -2.1 28.3 51 -10.9 12.3
12:30 1009 29.8 838 24.75 -1.6 29.1 48 -11.1 12
12:35 1009 29.8 838 24.75 -0.9 30.3 45 -11.3 11.6
12:40 1009 29.8 838 24.75 -0.2 31.7 43 -11.3 11.7
12:45 1009 29.8 838 24.75 0.5 32.9 42 -11 12.1
12:50 1009 29.8 838 24.75 0.7 33.2 41 -11 12.2
12:55 1009 29.8 838 24.75 0.5 32.9 40 -11.6 11.1
13:00 1009 29.8 838 24.75 0.5 32.9 41 -11.3 11.6
13:05 1009 29.8 838 24.75 0.4 32.8 39 -12 10.3
13:10 1009 29.8 838 24.75 0.4 32.8 39 -12 10.3
13:15 1009 29.8 838 24.75 0.6 33.1 37 -12.6 9.2
13:20 1009 29.8 838 24.75 1.1 33.9 38 -11.8 10.7
13:25 1009 29.8 838 24.75 1.5 34.7 35 -12.3 9.8
13:30 1009 29.8 838 24.75 0.8 33.5 37 -12.3 9.8
13:35 1009 29.8 838 24.75 0.8 33.5 34 -13.4 8
13:40 1009 29.8 838 24.75 1.4 34.5 36 -12.2 10.1
13:45 1009 29.8 838 24.75 1.5 34.6 32 -13.5 7.7
13:50 1009 29.8 838 24.75 1.6 34.9 32 -13.3 8.1
13:55 1009 29.8 838 24.75 1.6 34.9 33 -13 8.6
14:00 1009 29.8 838 24.75 1.2 34.2 33 -13.4 7.9
14:05 1009 29.8 838 24.75 1 33.8 33 -13.5 7.7
14:10 1009 29.8 838 24.75 0.8 33.4 34 -13.5 7.7
14:15 1009 29.8 838 24.75 0.3 32.6 34 -13.6 7.5
14:20 1009 29.8 838 24.75 0.1 32.2 36 -13.1 8.4
14:25 1009 29.8 838 24.75 0.1 32.2 38 -12.6 9.3
14:30 1009 29.8 838 24.75 -0.2 31.7 40 -12.1 10.3
14:35 1009 29.8 838 24.75 -0.3 31.5 41 -12.1 10.2
14:40 1009 29.8 838 24.75 -0.1 31.8 40 -12.1 10.3
14:45 1009 29.8 838 24.75 -0.1 31.9 40 -12.2 10.1
14:50 1009 29.8 838 24.75 -0.1 31.9 41 -11.7 10.9
14:55 1009 29.8 838 24.75 0 32 39 -12.5 9.6
15:00 1009 29.8 838 24.75 0 32 40 -12.1 10.2
15:05 1009 29.8 838 24.75 0.1 32.1 40 -12.1 10.1
15:10 1009 29.8 838 24.75 0.2 32.3 39 -12.3 9.9
15:15 1009 29.8 839 24.78 0.1 32.2 41 -11.8 10.8
15:20 1009 29.8 839 24.78 0.1 32.1 44 -10.8 12.6
15:25 1009 29.8 839 24.78 -0.1 31.8 42 -11.4 11.4
15:30 1009 29.8 839 24.78 -0.3 31.4 43 -11.5 11.3
15:35 1009 29.8 839 24.78 -0.3 31.4 45 -10.9 12.4
15:40 1010 29.83 839 24.78 -0.2 31.6 45 -10.9 12.3
15:45 1010 29.83 839 24.78 -0.2 31.7 44 -11.1 12.1
15:50 1010 29.83 839 24.78 -0 32 42 -11.5 11.3
15:55 1009 29.8 839 24.78 0.1 32.1 44 -10.9 12.3
16:00 1009 29.8 839 24.78 0.1 32.3 41 -11.7 10.9
16:05 1009 29.8 839 24.78 0.2 32.4 39 -12.1 10.2
16:10 1009 29.8 839 24.78 0.3 32.6 37 -12.9 8.8
16:15 1010 29.83 839 24.78 0.3 32.6 38 -12.5 9.6
16:20 1009 29.8 839 24.78 0.4 32.8 37 -12.7 9.2
16:25 1010 29.83 839 24.78 0.5 32.9 37 -12.7 9.2
16:30 1010 29.83 839 24.78 0.6 33 35 -13.1 8.4
16:35 1010 29.83 839 24.78 0.6 33.1 35 -13.1 8.5
16:40 1010 29.83 839 24.78 0.5 33 35 -13.3 8.1
16:45 1010 29.83 839 24.78 0.5 33 34 -13.5 7.6
16:50 1010 29.83 839 24.78 0.6 33 35 -13.2 8.2
16:55 1010 29.83 839 24.78 0.7 33.2 34 -13.6 7.5
17:00 1010 29.83 839 24.78 0.5 32.8 36 -12.9 8.8
17:05 1010 29.83 839 24.78 0.4 32.7 34 -13.8 7.1
17:10 1010 29.83 839 24.78 0.6 33.1 33 -13.9 7.1
17:15 1010 29.83 839 24.78 1 33.8 33 -13.4 7.9
17:20 1010 29.83 839 24.78 0.8 33.5 35 -13.1 8.4
17:25 1010 29.83 840 24.81 0.6 33.1 34 -13.5 7.8
17:30 1011 29.85 840 24.81 0.5 32.9 34 -13.7 7.3
17:35 1011 29.85 840 24.81 0.4 32.7 33 -14 6.8
17:40 1011 29.85 840 24.81 0.3 32.5 34 -14 6.8
17:45 1011 29.85 840 24.81 0.2 32.3 36 -13.3 8
17:50 1011 29.85 840 24.81 0.1 32.2 37 -12.9 8.7
17:55 1011 29.85 840 24.81 -0.1 31.9 39 -12.6 9.3
18:00 1011 29.85 840 24.81 -0.3 31.5 39 -12.5 9.5
18:05 1011 29.85 840 24.81 -0.4 31.2 39 -12.7 9.2
18:10 1011 29.85 840 24.81 -0.6 30.9 40 -12.6 9.4
18:15 1011 29.85 840 24.81 -0.7 30.8 40 -12.7 9.1
18:20 1011 29.85 841 24.83 -0.7 30.7 39 -13 8.5
18:25 1011 29.85 841 24.83 -0.8 30.6 40 -12.8 9
18:30 1012 29.88 841 24.83 -0.9 30.4 42 -12.3 9.8
18:35 1012 29.88 841 24.83 -0.9 30.3 39 -13.2 8.3
18:40 1012 29.88 841 24.83 -0.9 30.5 39 -13 8.5
18:45 1012 29.88 841 24.83 -0.9 30.3 41 -12.7 9.1
18:50 1012 29.88 841 24.83 -1 30.2 41 -12.5 9.5
18:55 1012 29.88 841 24.83 -1 30.1 43 -12.2 10
19:00 1012 29.88 841 24.83 -1.1 30 43 -12.2 10.1
19:05 1012 29.88 841 24.83 -1.1 30 43 -12 10.3
19:10 1012 29.88 841 24.83 -1.1 30 43 -12.1 10.3
19:15 1012 29.88 841 24.83 -1.1 30 44 -11.8 10.7
19:20 1012 29.88 841 24.83 -1.2 29.9 45 -11.8 10.8
19:25 1012 29.88 841 24.83 -1.3 29.7 46 -11.6 11.1
19:30 1012 29.88 841 24.83 -1.4 29.5 43 -12.3 9.9
19:35 1012 29.88 841 24.83 -1.4 29.5 43 -12.3 9.9
19:40 1012 29.88 841 24.83 -1.5 29.4 43 -12.4 9.7
19:45 1012 29.88 842 24.86 -1.5 29.2 44 -12.4 9.7
19:50 1012 29.88 842 24.86 -1.7 28.9 44 -12.3 9.8
19:55 1012 29.88 842 24.86 -1.9 28.6 45 -12.3 9.8
20:00 1012 29.88 842 24.86 -2 28.3 45 -12.4 9.7
20:05 1012 29.88 842 24.86 -2.1 28.2 45 -12.5 9.5
20:10 1012 29.88 842 24.86 -2.2 28 46 -12.3 9.9
20:15 1013 29.91 842 24.86 -2.4 27.6 48 -12.1 10.2
20:20 1013 29.91 842 24.86 -2.6 27.3 47 -12.4 9.6
20:25 1013 29.91 842 24.86 -2.6 27.4 46 -12.6 9.3
20:30 1013 29.91 842 24.86 -2.8 26.9 46 -13 8.6
20:35 1013 29.91 842 24.86 -2.9 26.8 43 -13.7 7.3
20:40 1013 29.91 842 24.86 -2.8 27 43 -13.7 7.3
20:45 1013 29.91 842 24.86 -2.9 26.8 42 -14.2 6.5
20:50 1013 29.91 842 24.86 -2.7 27.1 42 -13.9 7.1
20:55 1013 29.91 842 24.86 -2.7 27.1 42 -14 6.7
21:00 1013 29.91 842 24.86 -2.5 27.5 38 -15 5.1
21:05 1013 29.91 842 24.86 -2.2 28.1 37 -15.1 4.8
21:10 1013 29.91 842 24.86 -2 28.4 36 -15.2 4.6
21:15 1013 29.91 842 24.86 -2 28.4 36 -15 4.9
21:20 1013 29.91 842 24.86 -2.2 28 40 -14.1 6.7
21:25 1013 29.91 842 24.86 -2.6 27.3 41 -14.2 6.4
21:30 1013 29.91 842 24.86 -2.9 26.7 44 -13.5 7.8
21:35 1013 29.91 842 24.86 -3.3 26.1 42 -14.6 5.7
21:40 1013 29.91 842 24.86 -3.1 26.4 40 -14.8 5.4
21:45 1013 29.91 842 24.86 -3.1 26.5 39 -15.1 4.9
21:50 1013 29.91 842 24.86 -3 26.6 40 -14.8 5.4
21:55 1013 29.91 842 24.86 -3.1 26.5 40 -15 5.1
22:00 1013 29.91 842 24.86 -3 26.5 41 -14.6 5.7
22:05 1013 29.91 842 24.86 -3.4 25.9 43 -14.3 6.3
22:10 1013 29.91 842 24.86 -3.8 25.2 44 -14.5 6
22:15 1013 29.91 842 24.86 -3.8 25.2 42 -14.8 5.4
22:20 1013 29.91 842 24.86 -3.6 25.6 43 -14.5 6
22:25 1013 29.91 842 24.86 -3.7 25.3 45 -13.9 7
22:30 1013 29.91 842 24.86 -4 24.9 46 -13.9 6.9
22:35 1013 29.91 842 24.86 -4 24.7 48 -13.5 7.7
22:40 1013 29.91 843 24.89 -4.3 24.2 50 -13.2 8.3
22:45 1013 29.91 843 24.89 -4.4 24.1 51 -13.1 8.4
22:50 1013 29.91 843 24.89 -4.4 24.2 51 -13 8.6
22:55 1013 29.91 842 24.86 -4.3 24.3 50 -13.2 8.3
23:00 1013 29.91 843 24.89 -4.3 24.3 50 -13.2 8.2
23:05 1013 29.91 842 24.86 -4.4 24.1 50 -13.4 7.9
23:10 1013 29.91 842 24.86 -4.4 24 49 -13.5 7.7
23:15 1013 29.91 842 24.86 -4.4 24.1 49 -13.7 7.4
23:20 1013 29.91 842 24.86 -4.2 24.4 47 -13.9 6.9
23:25 1013 29.91 843 24.89 -4.1 24.5 47 -13.8 7.2
23:30 1013 29.91 843 24.89 -4.2 24.4 47 -14.1 6.7
23:35 1013 29.91 843 24.89 -4.3 24.2 46 -14.2 6.4
23:40 1013 29.91 843 24.89 -4.4 24.1 46 -14.3 6.3
23:45 1013 29.91 843 24.89 -4.5 23.9 46 -14.4 6.2
23:50 1013 29.91 843 24.89 -4.6 23.7 47 -14.4 6.1
23:55 1013 29.91 843 24.89 -4.6 23.6 47 -14.3 6.2
24:00 1013 29.91 843 24.89 -4.7 23.5 47 -14.4 6